Significant Other — WDB7278 — position and weather

sailwx.info

Track history (hours):
 
Tides and Currents Weather Stations Pressure Air Temp Water Temp Dewpoint Dewpoint Depression Visibility Wind Speed Wind Dir Waves Ship Positions

Significant Other

Owner: Miller, Douglas P, Port Orchard, WA. More information available from US FCC via Universal Licensing System and Coast Guard Vessel Documentation Center.

Last reported at 2016-Jul-21 01:16 UTC. Time now 2016-Jul-23 21:13 UTC.
Position N 47°32' W 122°39'.

Length 13 m.

Type: Sailing vessel. MMSI: 366896730.

Date/timePositionNaut miles runAvg speedWind from/ knotsBaromVisibWave heightAir tempDewpointWater temp
2016-Jul-21 01:16N 47°32' W 122°39'0 0.0
2016-Jul-21 00:31N 47°32' W 122°39'0 0.0
2016-Jul-20 00:27N 47°32' W 122°39'0 0.0
2016-Jul-18 00:13N 47°32' W 122°39'0 0.6
2016-Jul-17 23:33N 47°33' W 122°38'4 1.4
2016-Jul-17 20:33N 47°35' W 122°33'3 3.4
2016-Jul-17 19:33N 47°37' W 122°29'5 4.9
2016-Jul-17 18:33N 47°42' W 122°30'1 0.1
2016-Jul-16 23:16N 47°43' W 122°32'2 2.3
2016-Jul-16 22:33N 47°44' W 122°32'1 0.6
2016-Jul-16 21:33N 47°44' W 122°33'7 3.5
2016-Jul-16 19:33N 47°37' W 122°35'2 1.9
2016-Jul-16 18:32N 47°35' W 122°33'0 0.0
2016-Jul-16 03:11N 47°35' W 122°33'1 0.9
2016-Jul-16 02:33N 47°35' W 122°34'  
Track history (hours):
 
Tides and Currents Weather Stations Pressure Air Temp Water Temp Dewpoint Dewpoint Depression Visibility Wind Speed Wind Dir Waves Ship Positions

Significant Other

Owner: Miller, Douglas P, Port Orchard, WA. More information available from US FCC via Universal Licensing System and Coast Guard Vessel Documentation Center.

Last reported at 2016-Jul-21 01:16 UTC. Time now 2016-Jul-23 21:13 UTC.
Position N 47°32' W 122°39'.

Length 13 m.

Type: Sailing vessel. MMSI: 366896730.

Date/timePositionNaut miles runAvg speedWind from/ knotsBaromVisibWave heightAir tempDewpointWater temp
2016-Jul-21 01:16N 47°32' W 122°39'0 0.0
2016-Jul-21 00:31N 47°32' W 122°39'0 0.0
2016-Jul-20 00:27N 47°32' W 122°39'0 0.0
2016-Jul-18 00:13N 47°32' W 122°39'0 0.6
2016-Jul-17 23:33N 47°33' W 122°38'4 1.4
2016-Jul-17 20:33N 47°35' W 122°33'3 3.4
2016-Jul-17 19:33N 47°37' W 122°29'5 4.9
2016-Jul-17 18:33N 47°42' W 122°30'1 0.1
2016-Jul-16 23:16N 47°43' W 122°32'2 2.3
2016-Jul-16 22:33N 47°44' W 122°32'1 0.6
2016-Jul-16 21:33N 47°44' W 122°33'7 3.5
2016-Jul-16 19:33N 47°37' W 122°35'2 1.9
2016-Jul-16 18:32N 47°35' W 122°33'0 0.0
2016-Jul-16 03:11N 47°35' W 122°33'1 0.9
2016-Jul-16 02:33N 47°35' W 122°34'  

Dump ship's entire track history